Aérodrome :
LOGIN :

S'inscrire | Disclaimer

   EN    FR    IT 

 










Légende :    VFR   VFR Marginal   IFR   IFR Intensif   IFR Très Intensif
Visi : 
Plafond : 
>= 8 km
>= 3000ft
5 à 8 km
1000 à 3000 ft
1500m à 5 km
500 à 1000 ft
800 à 1500m
200 à 500 ft
< 800m
< 200 ft
Symboles :   Orages  Brouillard  Fortes neiges  Fortes précipitations  Vent > 20 kt
SIGMETs :   Divers  Orages  Givrage  Turbulence  Onde Orograph.  Cendres Volcan.






- Altitude de l'aérodrome : 117 ft
- Code IATA : NWI


EGSH - Norwich

DERNIER METAR :
  • 192250Z AUTO 21014KT 9999 FEW017/// OVC031/// 08/07 Q1011

METARs EXPIRÉS :
  • 192220Z AUTO 21014KT 9999 FEW017/// OVC032/// 08/07 Q1011
  • 192150Z AUTO 21013KT 9999 FEW011/// BKN032/// OVC038/// 08/07 Q1012
  • 192120Z 20012KT 9999 SCT015 SCT021 08/07 Q1012 NOSIG
  • 192050Z 20014KT 9999 SCT015 SCT021 08/07 Q1013
  • 192020Z 19012KT 160V220 9999 -RA BKN020 08/06 Q1013 RERA TEMPO BKN012
  • 191950Z 19011KT 7000 RA BKN007 07/06 Q1013 BECMG -RA BKN011

TAF TAF EGSH
Valide du 19 à 21h jusqu'au 20 à 00h UTC


191950Z 1921/1924 20014KT 9999 SCT018
PROB30
TEMPO 1921/1924 22017G27KT 6000 -RADZ BKN008
ATIS : +44 1603 420 640



MET'MAP, la Météo Aéronautique d'un coup d'oeil ! - Copyright ORBIFLY Décembre 2007 - Disclaimer

ORBIFLY MET'MAP TEAM :

Programmation & Développement : Alexandra Zaïnal
Sur une idée originale de : Baudouin d'Aumeries
Assistance à la programmation : Marc-Olivier Méhu
Soutien technique & logistique : Manuel Goepfert

Contact : metmap@orbifly.com




SOURCES & CREDITS :

   NOAA